CheckWX is a tool to help pilots better visualize weather data.  It is not intended as a substitute for an official pre-flight weather briefing.

18:13:06 UTC

LFPG TAF
Charles de Gaulle International Airport
Paris, France
TAF LFPG 171700Z 1718/1824 20005KT CAVOK TX13/1718Z TN03/1806Z BECMG 1718/1720 16005KT PROB30 TEMPO 1804/1806 4000 BR BECMG 1810/1812 20010KT BECMG 1818/1820 BKN023

Feb-17@
18:00 UTC

Feb-17 @ 18:00 UTC

Feb-19@
00:00 UTC

Feb-19 @ 00:00 UTC

TAF LFPG 171700Z 1718/1824 20005KT CAVOK TX13/1718Z TN03/1806Z
Wind
  • 200° at 5 KTS
Visibility
10,000+ meters
Cloud Levels
  • No significant clouds

Feb-17@
18:00 UTC

Feb-17 @ 18:00 UTC

Feb-18@
10:00 UTC

Feb-18 @ 10:00 UTC

BECMG 1718/1720 16005KT

Becoming

BecomingConditions expected by Sun, Feb 17, 2019 @ 20:00 UTC

Wind
  • 160° at 5 KTS
Visibility
10,000+ meters
Cloud Levels
  • No significant clouds

Feb-18@
04:00 UTC

Feb-18 @ 04:00 UTC

Feb-18@
06:00 UTC

Feb-18 @ 06:00 UTC

PROB30 TEMPO 1804/1806 4000 BR

Temporary - 30% Likelihood

Temporary - 30% Likelihood during this time.

Visibility
4,007 meters
Conditions
Mist

Feb-18@
10:00 UTC

Feb-18 @ 10:00 UTC

Feb-18@
18:00 UTC

Feb-18 @ 18:00 UTC

BECMG 1810/1812 20010KT

Becoming

BecomingConditions expected by Mon, Feb 18, 2019 @ 12:00 UTC

Wind
  • 200° at 10 KTS
Visibility
10,000+ meters
Cloud Levels
  • No significant clouds

Feb-18@
18:00 UTC

Feb-18 @ 18:00 UTC

Feb-19@
00:00 UTC

Feb-19 @ 00:00 UTC

BECMG 1818/1820 BKN023

Becoming

BecomingConditions expected by Mon, Feb 18, 2019 @ 20:00 UTC

Wind
  • 200° at 10 KTS
Visibility
10,000+ meters
Cloud Levels
  • Broken at 2,300' AGL